sensor_id;sensor_type;location;lat;lon;timestamp;pressure;altitude;pressure_sealevel;temperature;humidity
3960;BME280;1994;48.640;8.894;2024-03-02T00:00:15;94994.81;;;5.96;97.27
3960;BME280;1994;48.640;8.894;2024-03-02T00:02:44;94997.47;;;6.01;97.62
3960;BME280;1994;48.640;8.894;2024-03-02T00:05:12;94998.00;;;6.03;97.66
3960;BME280;1994;48.640;8.894;2024-03-02T00:07:42;94996.00;;;6.05;97.71
3960;BME280;1994;48.640;8.894;2024-03-02T00:10:10;94998.63;;;6.10;97.99
3960;BME280;1994;48.640;8.894;2024-03-02T00:12:38;94998.25;;;6.18;97.48
3960;BME280;1994;48.640;8.894;2024-03-02T00:18:12;94999.44;;;6.27;97.36
3960;BME280;1994;48.640;8.894;2024-03-02T00:20:39;94986.03;;;6.25;97.52
3960;BME280;1994;48.640;8.894;2024-03-02T00:23:07;94986.03;;;6.25;97.82
3960;BME280;1994;48.640;8.894;2024-03-02T00:25:55;94990.22;;;6.31;97.70
3960;BME280;1994;48.640;8.894;2024-03-02T00:28:26;94988.97;;;6.33;97.71
3960;BME280;1994;48.640;8.894;2024-03-02T00:31:02;94988.59;;;6.41;97.14
3960;BME280;1994;48.640;8.894;2024-03-02T00:33:46;94992.88;;;6.36;97.07
3960;BME280;1994;48.640;8.894;2024-03-02T00:36:22;94987.72;;;6.36;96.96
3960;BME280;1994;48.640;8.894;2024-03-02T00:38:50;94991.47;;;6.28;97.20
3960;BME280;1994;48.640;8.894;2024-03-02T00:41:31;94999.03;;;6.35;96.99
3960;BME280;1994;48.640;8.894;2024-03-02T00:44:00;94996.47;;;6.35;96.97
3960;BME280;1994;48.640;8.894;2024-03-02T00:46:30;94990.16;;;6.26;97.20
3960;BME280;1994;48.640;8.894;2024-03-02T00:49:04;94998.88;;;6.25;97.78
3960;BME280;1994;48.640;8.894;2024-03-02T00:51:32;94993.19;;;6.23;97.85
3960;BME280;1994;48.640;8.894;2024-03-02T00:54:03;94999.44;;;6.27;97.82
3960;BME280;1994;48.640;8.894;2024-03-02T00:56:30;94990.53;;;6.18;98.11
3960;BME280;1994;48.640;8.894;2024-03-02T00:58:56;94987.44;;;6.16;98.44
3960;BME280;1994;48.640;8.894;2024-03-02T01:01:23;94982.28;;;6.16;98.28
3960;BME280;1994;48.640;8.894;2024-03-02T01:03:49;95000.38;;;6.21;97.88
3960;BME280;1994;48.640;8.894;2024-03-02T01:06:16;94996.13;;;6.15;97.97
3960;BME280;1994;48.640;8.894;2024-03-02T01:08:42;94993.03;;;6.13;98.10
3960;BME280;1994;48.640;8.894;2024-03-02T01:11:08;94999.09;;;6.07;98.58
3960;BME280;1994;48.640;8.894;2024-03-02T01:13:34;94998.19;;;6.13;98.28
3960;BME280;1994;48.640;8.894;2024-03-02T01:16:00;94994.06;;;6.12;98.51
3960;BME280;1994;48.640;8.894;2024-03-02T01:18:26;95001.44;;;6.08;98.63
3960;BME280;1994;48.640;8.894;2024-03-02T01:20:52;94984.22;;;6.09;98.73
3960;BME280;1994;48.640;8.894;2024-03-02T01:23:21;94991.75;;;5.99;98.90
3960;BME280;1994;48.640;8.894;2024-03-02T01:25:47;94993.34;;;6.00;98.80
3960;BME280;1994;48.640;8.894;2024-03-02T01:28:14;94988.03;;;5.90;99.32
3960;BME280;1994;48.640;8.894;2024-03-02T01:30:40;94981.00;;;5.85;99.56
3960;BME280;1994;48.640;8.894;2024-03-02T01:33:05;94984.25;;;5.81;99.74
3960;BME280;1994;48.640;8.894;2024-03-02T01:35:32;94979.13;;;5.81;99.88
3960;BME280;1994;48.640;8.894;2024-03-02T01:37:58;94977.69;;;5.73;99.69
3960;BME280;1994;48.640;8.894;2024-03-02T01:40:24;94971.22;;;5.71;100.00
3960;BME280;1994;48.640;8.894;2024-03-02T01:42:53;94976.91;;;5.73;99.86
3960;BME280;1994;48.640;8.894;2024-03-02T01:45:20;94980.03;;;5.75;99.95
3960;BME280;1994;48.640;8.894;2024-03-02T01:47:46;94972.84;;;5.77;99.70
3960;BME280;1994;48.640;8.894;2024-03-02T01:50:13;94972.84;;;5.77;99.73
3960;BME280;1994;48.640;8.894;2024-03-02T01:52:39;94968.19;;;5.74;100.00
3960;BME280;1994;48.640;8.894;2024-03-02T01:55:05;94966.63;;;5.73;100.00
3960;BME280;1994;48.640;8.894;2024-03-02T01:57:33;94970.84;;;5.79;100.00
3960;BME280;1994;48.640;8.894;2024-03-02T02:00:00;94979.56;;;5.78;99.81
3960;BME280;1994;48.640;8.894;2024-03-02T02:02:26;94976.00;;;5.79;99.34
3960;BME280;1994;48.640;8.894;2024-03-02T02:04:52;94978.00;;;5.77;99.57
3960;BME280;1994;48.640;8.894;2024-03-02T02:07:18;94976.91;;;5.73;99.90
3960;BME280;1994;48.640;8.894;2024-03-02T02:09:44;94974.25;;;5.68;100.00
3960;BME280;1994;48.640;8.894;2024-03-02T02:12:10;94978.81;;;5.66;100.00
3960;BME280;1994;48.640;8.894;2024-03-02T02:14:36;94975.19;;;5.62;100.00
3960;BME280;1994;48.640;8.894;2024-03-02T02:17:02;94971.59;;;5.63;100.00
3960;BME280;1994;48.640;8.894;2024-03-02T02:19:28;94973.16;;;5.64;100.00
3960;BME280;1994;48.640;8.894;2024-03-02T02:21:55;94971.13;;;5.66;100.00
3960;BME280;1994;48.640;8.894;2024-03-02T02:24:21;94960.22;;;5.59;100.00
3960;BME280;1994;48.640;8.894;2024-03-02T02:26:46;94956.44;;;5.50;100.00
3960;BME280;1994;48.640;8.894;2024-03-02T02:29:12;94962.25;;;5.57;100.00
3960;BME280;1994;48.640;8.894;2024-03-02T02:31:40;94951.97;;;5.57;100.00
3960;BME280;1994;48.640;8.894;2024-03-02T02:34:06;94952.41;;;5.54;100.00
3960;BME280;1994;48.640;8.894;2024-03-02T02:36:33;94945.72;;;5.53;100.00
3960;BME280;1994;48.640;8.894;2024-03-02T02:39:02;94942.72;;;5.56;100.00
3960;BME280;1994;48.640;8.894;2024-03-02T02:41:32;94955.06;;;5.59;100.00
3960;BME280;1994;48.640;8.894;2024-03-02T02:43:58;94945.59;;;5.59;100.00
3960;BME280;1994;48.640;8.894;2024-03-02T02:46:24;94954.06;;;5.60;100.00
3960;BME280;1994;48.640;8.894;2024-03-02T02:48:50;94948.38;;;5.58;100.00
3960;BME280;1994;48.640;8.894;2024-03-02T02:51:18;94955.56;;;5.56;100.00
3960;BME280;1994;48.640;8.894;2024-03-02T02:53:44;94953.97;;;5.55;100.00
3960;BME280;1994;48.640;8.894;2024-03-02T02:56:10;94953.97;;;5.55;100.00
3960;BME280;1994;48.640;8.894;2024-03-02T02:58:35;94949.22;;;5.47;100.00
3960;BME280;1994;48.640;8.894;2024-03-02T03:01:01;94951.78;;;5.47;100.00
3960;BME280;1994;48.640;8.894;2024-03-02T03:03:27;94953.81;;;5.45;100.00
3960;BME280;1994;48.640;8.894;2024-03-02T03:05:53;94945.53;;;5.43;100.00
3960;BME280;1994;48.640;8.894;2024-03-02T03:08:19;94944.44;;;5.39;100.00
3960;BME280;1994;48.640;8.894;2024-03-02T03:10:45;94942.88;;;5.38;100.00
3960;BME280;1994;48.640;8.894;2024-03-02T03:13:11;94947.59;;;5.29;100.00
3960;BME280;1994;48.640;8.894;2024-03-02T03:15:37;94949.31;;;5.24;100.00
3960;BME280;1994;48.640;8.894;2024-03-02T03:18:05;94947.66;;;5.18;100.00
3960;BME280;1994;48.640;8.894;2024-03-02T03:20:32;94952.22;;;5.16;100.00
3960;BME280;1994;48.640;8.894;2024-03-02T03:22:57;94951.69;;;5.14;100.00
3960;BME280;1994;48.640;8.894;2024-03-02T03:25:23;94947.47;;;5.08;100.00
3960;BME280;1994;48.640;8.894;2024-03-02T03:27:49;94950.47;;;5.05;100.00
3960;BME280;1994;48.640;8.894;2024-03-02T03:30:15;94957.72;;;5.08;100.00
3960;BME280;1994;48.640;8.894;2024-03-02T03:32:41;94952.13;;;5.11;100.00
3960;BME280;1994;48.640;8.894;2024-03-02T03:35:07;94963.97;;;5.12;100.00
3960;BME280;1994;48.640;8.894;2024-03-02T03:37:34;94957.94;;;5.18;100.00
3960;BME280;1994;48.640;8.894;2024-03-02T03:40:03;94961.47;;;5.17;100.00
3960;BME280;1994;48.640;8.894;2024-03-02T03:42:36;94955.25;;;5.13;100.00
3960;BME280;1994;48.640;8.894;2024-03-02T03:45:03;94950.91;;;5.13;100.00
3960;BME280;1994;48.640;8.894;2024-03-02T03:47:31;94955.72;;;5.10;100.00
3960;BME280;1994;48.640;8.894;2024-03-02T03:49:57;94950.56;;;5.10;100.00
3960;BME280;1994;48.640;8.894;2024-03-02T03:52:24;94951.16;;;5.00;100.00
3960;BME280;1994;48.640;8.894;2024-03-02T03:54:50;94946.16;;;4.94;100.00
3960;BME280;1994;48.640;8.894;2024-03-02T03:57:16;94945.72;;;4.97;100.00
3960;BME280;1994;48.640;8.894;2024-03-02T03:59:42;94948.16;;;4.92;100.00
3960;BME280;1994;48.640;8.894;2024-03-02T04:02:09;94942.91;;;4.98;100.00
3960;BME280;1994;48.640;8.894;2024-03-02T04:04:35;94948.50;;;4.95;100.00
3960;BME280;1994;48.640;8.894;2024-03-02T04:07:01;94952.41;;;4.98;100.00
3960;BME280;1994;48.640;8.894;2024-03-02T04:09:27;94949.94;;;5.03;100.00
3960;BME280;1994;48.640;8.894;2024-03-02T04:11:53;94954.28;;;5.02;100.00
3960;BME280;1994;48.640;8.894;2024-03-02T04:14:19;94951.03;;;5.07;100.00
3960;BME280;1994;48.640;8.894;2024-03-02T04:16:45;94950.13;;;5.13;100.00
3960;BME280;1994;48.640;8.894;2024-03-02T04:19:11;94953.25;;;5.15;100.00
3960;BME280;1994;48.640;8.894;2024-03-02T04:21:37;94954.34;;;5.19;100.00
3960;BME280;1994;48.640;8.894;2024-03-02T04:24:03;94956.38;;;5.45;100.00
3960;BME280;1994;48.640;8.894;2024-03-02T04:26:29;94946.19;;;5.50;100.00
3960;BME280;1994;48.640;8.894;2024-03-02T04:28:54;94952.91;;;5.51;100.00
3960;BME280;1994;48.640;8.894;2024-03-02T04:31:21;94943.69;;;5.38;100.00
3960;BME280;1994;48.640;8.894;2024-03-02T04:33:46;94941.75;;;5.45;100.00
3960;BME280;1994;48.640;8.894;2024-03-02T04:36:12;94947.09;;;5.44;100.00
3960;BME280;1994;48.640;8.894;2024-03-02T04:38:39;94950.50;;;5.33;100.00
3960;BME280;1994;48.640;8.894;2024-03-02T04:41:06;94951.91;;;5.40;100.00
3960;BME280;1994;48.640;8.894;2024-03-02T04:43:33;94953.88;;;5.22;100.00
3960;BME280;1994;48.640;8.894;2024-03-02T04:45:59;94942.53;;;5.18;100.00
3960;BME280;1994;48.640;8.894;2024-03-02T04:48:25;94949.56;;;5.11;100.00
3960;BME280;1994;48.640;8.894;2024-03-02T04:50:52;94947.47;;;5.08;100.00
3960;BME280;1994;48.640;8.894;2024-03-02T04:53:17;94956.41;;;4.94;100.00
3960;BME280;1994;48.640;8.894;2024-03-02T04:55:43;94954.97;;;4.98;100.00
3960;BME280;1994;48.640;8.894;2024-03-02T04:58:09;94948.94;;;4.92;100.00
3960;BME280;1994;48.640;8.894;2024-03-02T05:00:35;94953.31;;;4.92;100.00
3960;BME280;1994;48.640;8.894;2024-03-02T05:03:02;94957.53;;;4.98;100.00
3960;BME280;1994;48.640;8.894;2024-03-02T05:05:28;94968.69;;;4.92;100.00
3960;BME280;1994;48.640;8.894;2024-03-02T05:07:54;94965.56;;;4.90;100.00
3960;BME280;1994;48.640;8.894;2024-03-02T05:10:20;94957.44;;;4.93;100.00
3960;BME280;1994;48.640;8.894;2024-03-02T05:12:46;94963.91;;;4.95;100.00
3960;BME280;1994;48.640;8.894;2024-03-02T05:15:13;94965.00;;;4.88;100.00
3960;BME280;1994;48.640;8.894;2024-03-02T05:17:41;94967.38;;;4.89;100.00
3960;BME280;1994;48.640;8.894;2024-03-02T05:20:09;94967.16;;;4.91;100.00
3960;BME280;1994;48.640;8.894;2024-03-02T05:22:36;94966.47;;;4.84;100.00
3960;BME280;1994;48.640;8.894;2024-03-02T05:25:03;94973.06;;;4.80;100.00
3960;BME280;1994;48.640;8.894;2024-03-02T05:27:29;94978.75;;;4.82;100.00
3960;BME280;1994;48.640;8.894;2024-03-02T05:29:55;94977.19;;;4.81;100.00
3960;BME280;1994;48.640;8.894;2024-03-02T05:32:21;94974.41;;;4.82;100.00
3960;BME280;1994;48.640;8.894;2024-03-02T05:34:47;94981.19;;;4.77;100.00
3960;BME280;1994;48.640;8.894;2024-03-02T05:37:13;94973.72;;;4.75;100.00
3960;BME280;1994;48.640;8.894;2024-03-02T05:39:38;94976.19;;;4.70;100.00
3960;BME280;1994;48.640;8.894;2024-03-02T05:42:04;94983.44;;;4.62;100.00
3960;BME280;1994;48.640;8.894;2024-03-02T05:44:30;94979.91;;;4.63;100.00
3960;BME280;1994;48.640;8.894;2024-03-02T05:46:56;94988.03;;;4.60;100.00
3960;BME280;1994;48.640;8.894;2024-03-02T05:49:22;94990.16;;;4.63;100.00
3960;BME280;1994;48.640;8.894;2024-03-02T05:51:49;94982.53;;;4.68;100.00
3960;BME280;1994;48.640;8.894;2024-03-02T05:54:15;94984.00;;;4.64;100.00
3960;BME280;1994;48.640;8.894;2024-03-02T05:56:40;94978.31;;;4.62;100.00
3960;BME280;1994;48.640;8.894;2024-03-02T05:59:06;94970.50;;;4.57;100.00
3960;BME280;1994;48.640;8.894;2024-03-02T06:01:35;94985.91;;;4.57;100.00
3960;BME280;1994;48.640;8.894;2024-03-02T06:04:01;94976.09;;;4.54;100.00
3960;BME280;1994;48.640;8.894;2024-03-02T06:06:26;94976.53;;;4.51;100.00
3960;BME280;1994;48.640;8.894;2024-03-02T06:08:53;94980.00;;;4.45;100.00
3960;BME280;1994;48.640;8.894;2024-03-02T06:11:21;94985.69;;;4.47;100.00
3960;BME280;1994;48.640;8.894;2024-03-02T06:13:47;94988.81;;;4.49;100.00
3960;BME280;1994;48.640;8.894;2024-03-02T06:16:13;94986.25;;;4.49;100.00
3960;BME280;1994;48.640;8.894;2024-03-02T06:18:39;94984.91;;;4.46;100.00
3960;BME280;1994;48.640;8.894;2024-03-02T06:21:05;94992.38;;;4.48;100.00
3960;BME280;1994;48.640;8.894;2024-03-02T06:23:31;94999.06;;;4.49;100.00
3960;BME280;1994;48.640;8.894;2024-03-02T06:25:56;94999.28;;;4.47;100.00
3960;BME280;1994;48.640;8.894;2024-03-02T06:28:22;94996.16;;;4.57;100.00
3960;BME280;1994;48.640;8.894;2024-03-02T06:30:48;95000.63;;;4.50;100.00
3960;BME280;1994;48.640;8.894;2024-03-02T06:33:14;95004.75;;;4.51;100.00
3960;BME280;1994;48.640;8.894;2024-03-02T06:35:40;94998.16;;;4.55;100.00
3960;BME280;1994;48.640;8.894;2024-03-02T06:38:06;95006.41;;;4.57;100.00
3960;BME280;1994;48.640;8.894;2024-03-02T06:40:37;95003.53;;;4.65;100.00
3960;BME280;1994;48.640;8.894;2024-03-02T06:43:05;95004.19;;;4.72;100.00
3960;BME280;1994;48.640;8.894;2024-03-02T06:45:30;95001.72;;;4.65;100.00
3960;BME280;1994;48.640;8.894;2024-03-02T06:47:56;94998.41;;;4.65;100.00
3960;BME280;1994;48.640;8.894;2024-03-02T06:50:22;95001.50;;;4.67;100.00
3960;BME280;1994;48.640;8.894;2024-03-02T06:52:48;95000.50;;;4.68;100.00
3960;BME280;1994;48.640;8.894;2024-03-02T06:55:14;94998.94;;;4.67;100.00
3960;BME280;1994;48.640;8.894;2024-03-02T06:57:40;94999.28;;;4.82;100.00
3960;BME280;1994;48.640;8.894;2024-03-02T07:00:06;94994.47;;;4.85;100.00
3960;BME280;1994;48.640;8.894;2024-03-02T07:02:35;95001.84;;;4.93;100.00
3960;BME280;1994;48.640;8.894;2024-03-02T07:05:02;95001.84;;;4.93;100.00
3960;BME280;1994;48.640;8.894;2024-03-02T07:07:28;95002.59;;;4.94;100.00
3960;BME280;1994;48.640;8.894;2024-03-02T07:09:54;95006.97;;;4.93;100.00
3960;BME280;1994;48.640;8.894;2024-03-02T07:12:20;95003.06;;;4.91;100.00
3960;BME280;1994;48.640;8.894;2024-03-02T07:14:46;95003.16;;;4.96;100.00
3960;BME280;1994;48.640;8.894;2024-03-02T07:17:37;95007.72;;;4.94;100.00
3960;BME280;1994;48.640;8.894;2024-03-02T07:20:03;95003.25;;;5.01;100.00
3960;BME280;1994;48.640;8.894;2024-03-02T07:22:32;95003.94;;;5.08;100.00
3960;BME280;1994;48.640;8.894;2024-03-02T07:24:58;95008.16;;;5.14;100.00
3960;BME280;1994;48.640;8.894;2024-03-02T07:27:24;95011.84;;;5.18;100.00
3960;BME280;1994;48.640;8.894;2024-03-02T07:29:50;95008.47;;;5.17;100.00
3960;BME280;1994;48.640;8.894;2024-03-02T07:32:16;95016.59;;;5.26;100.00
3960;BME280;1994;48.640;8.894;2024-03-02T07:34:42;95014.69;;;5.33;100.00
3960;BME280;1994;48.640;8.894;2024-03-02T07:37:08;95014.66;;;5.44;100.00
3960;BME280;1994;48.640;8.894;2024-03-02T07:39:33;95014.97;;;5.48;100.00
3960;BME280;1994;48.640;8.894;2024-03-02T07:42:00;95003.97;;;5.64;100.00
3960;BME280;1994;48.640;8.894;2024-03-02T07:44:26;95014.97;;;5.48;100.00
3960;BME280;1994;48.640;8.894;2024-03-02T07:46:52;95023.69;;;5.47;100.00
3960;BME280;1994;48.640;8.894;2024-03-02T07:49:19;95006.00;;;5.62;100.00
3960;BME280;1994;48.640;8.894;2024-03-02T07:51:45;95001.56;;;5.85;100.00
3960;BME280;1994;48.640;8.894;2024-03-02T07:54:10;95006.41;;;6.15;100.00
3960;BME280;1994;48.640;8.894;2024-03-02T07:56:36;95005.50;;;6.21;100.00
3960;BME280;1994;48.640;8.894;2024-03-02T07:59:03;94999.44;;;6.60;100.00
3960;BME280;1994;48.640;8.894;2024-03-02T08:01:30;95012.25;;;7.14;99.66
3960;BME280;1994;48.640;8.894;2024-03-02T08:04:00;95013.03;;;7.58;96.84
3960;BME280;1994;48.640;8.894;2024-03-02T08:06:27;95014.72;;;7.69;94.05
3960;BME280;1994;48.640;8.894;2024-03-02T08:08:55;95017.53;;;8.47;90.63
3960;BME280;1994;48.640;8.894;2024-03-02T08:11:21;95014.69;;;9.31;87.02
3960;BME280;1994;48.640;8.894;2024-03-02T08:13:48;95006.84;;;9.83;82.40
3960;BME280;1994;48.640;8.894;2024-03-02T08:16:18;95020.38;;;10.10;82.03
3960;BME280;1994;48.640;8.894;2024-03-02T08:18:49;95016.28;;;10.19;79.53
3960;BME280;1994;48.640;8.894;2024-03-02T08:21:15;95019.34;;;10.91;78.16
3960;BME280;1994;48.640;8.894;2024-03-02T08:23:42;95026.56;;;11.09;75.92
3960;BME280;1994;48.640;8.894;2024-03-02T08:26:09;95017.69;;;11.40;73.57
3960;BME280;1994;48.640;8.894;2024-03-02T08:28:35;95017.53;;;11.80;72.59
3960;BME280;1994;48.640;8.894;2024-03-02T08:31:06;95014.69;;;12.25;71.46
3960;BME280;1994;48.640;8.894;2024-03-02T08:33:33;95011.47;;;12.71;68.91
3960;BME280;1994;48.640;8.894;2024-03-02T08:36:00;95030.75;;;12.99;67.62
3960;BME280;1994;48.640;8.894;2024-03-02T08:38:26;95026.56;;;13.50;66.45
3960;BME280;1994;48.640;8.894;2024-03-02T08:40:52;95025.47;;;13.56;64.78
3960;BME280;1994;48.640;8.894;2024-03-02T08:43:19;95019.50;;;13.32;65.92
3960;BME280;1994;48.640;8.894;2024-03-02T08:45:45;95003.56;;;13.38;66.73
3960;BME280;1994;48.640;8.894;2024-03-02T08:48:11;95016.47;;;13.48;64.38
3960;BME280;1994;48.640;8.894;2024-03-02T08:50:36;95004.22;;;13.02;64.50
3960;BME280;1994;48.640;8.894;2024-03-02T08:53:04;95008.31;;;13.55;65.35
3960;BME280;1994;48.640;8.894;2024-03-02T08:55:30;95003.22;;;14.61;61.41
3960;BME280;1994;48.640;8.894;2024-03-02T08:57:56;95009.59;;;14.87;59.83
3960;BME280;1994;48.640;8.894;2024-03-02T09:00:23;94996.09;;;15.12;57.54
3960;BME280;1994;48.640;8.894;2024-03-02T09:02:48;95002.69;;;15.23;56.62
3960;BME280;1994;48.640;8.894;2024-03-02T09:05:15;95002.53;;;15.33;55.82
3960;BME280;1994;48.640;8.894;2024-03-02T09:07:40;94987.34;;;16.11;54.71
3960;BME280;1994;48.640;8.894;2024-03-02T09:10:08;94994.63;;;16.36;52.24
3960;BME280;1994;48.640;8.894;2024-03-02T09:12:34;94995.16;;;16.90;50.43
3960;BME280;1994;48.640;8.894;2024-03-02T09:15:01;94995.81;;;16.43;50.29
3960;BME280;1994;48.640;8.894;2024-03-02T09:17:31;94991.06;;;16.32;50.35
3960;BME280;1994;48.640;8.894;2024-03-02T09:19:57;94989.69;;;17.00;49.34
3960;BME280;1994;48.640;8.894;2024-03-02T09:22:23;94988.03;;;16.52;49.93
3960;BME280;1994;48.640;8.894;2024-03-02T09:24:49;95000.31;;;16.16;50.63
3960;BME280;1994;48.640;8.894;2024-03-02T09:27:15;94994.41;;;15.75;51.57
3960;BME280;1994;48.640;8.894;2024-03-02T09:29:41;94998.03;;;15.87;51.43
3960;BME280;1994;48.640;8.894;2024-03-02T09:32:08;94983.53;;;15.81;51.39
3960;BME280;1994;48.640;8.894;2024-03-02T09:34:37;94987.72;;;16.18;50.66
3960;BME280;1994;48.640;8.894;2024-03-02T09:37:03;94990.84;;;16.86;50.63
3960;BME280;1994;48.640;8.894;2024-03-02T09:39:30;94985.16;;;16.40;50.68
3960;BME280;1994;48.640;8.894;2024-03-02T09:41:57;94985.88;;;15.83;51.93
3960;BME280;1994;48.640;8.894;2024-03-02T09:44:23;94986.81;;;16.58;49.40
3960;BME280;1994;48.640;8.894;2024-03-02T09:46:51;94987.19;;;16.95;48.49
3960;BME280;1994;48.640;8.894;2024-03-02T09:49:17;94984.59;;;17.34;47.10
3960;BME280;1994;48.640;8.894;2024-03-02T09:51:48;94978.25;;;16.66;48.68
3960;BME280;1994;48.640;8.894;2024-03-02T09:54:17;94978.16;;;16.35;48.70
3960;BME280;1994;48.640;8.894;2024-03-02T09:56:44;94971.53;;;17.04;48.52
3960;BME280;1994;48.640;8.894;2024-03-02T09:59:10;94981.47;;;17.15;46.91
3960;BME280;1994;48.640;8.894;2024-03-02T10:01:36;94980.28;;;17.69;46.75
3960;BME280;1994;48.640;8.894;2024-03-02T10:04:02;94971.34;;;16.92;49.38
3960;BME280;1994;48.640;8.894;2024-03-02T10:06:29;94976.56;;;17.70;47.69
3960;BME280;1994;48.640;8.894;2024-03-02T10:08:55;94988.03;;;18.08;46.77
3960;BME280;1994;48.640;8.894;2024-03-02T10:11:35;94978.19;;;18.05;47.29
3960;BME280;1994;48.640;8.894;2024-03-02T10:14:11;94971.72;;;18.62;45.82
3960;BME280;1994;48.640;8.894;2024-03-02T10:16:41;94978.78;;;19.50;43.93
3960;BME280;1994;48.640;8.894;2024-03-02T10:19:21;94974.66;;;19.32;43.38
3960;BME280;1994;48.640;8.894;2024-03-02T10:21:53;94964.84;;;19.12;43.10
3960;BME280;1994;48.640;8.894;2024-03-02T10:24:22;94964.66;;;18.54;43.88
3960;BME280;1994;48.640;8.894;2024-03-02T10:26:48;94961.47;;;19.78;41.21
3960;BME280;1994;48.640;8.894;2024-03-02T10:29:15;94950.84;;;19.95;40.40
3960;BME280;1994;48.640;8.894;2024-03-02T10:31:45;94951.59;;;19.95;41.65
3960;BME280;1994;48.640;8.894;2024-03-02T10:34:12;94952.63;;;20.03;40.97
3960;BME280;1994;48.640;8.894;2024-03-02T10:36:42;94949.00;;;20.69;39.37
3960;BME280;1994;48.640;8.894;2024-03-02T10:39:09;94950.56;;;20.70;38.97
3960;BME280;1994;48.640;8.894;2024-03-02T10:41:37;94949.16;;;21.17;38.31
3960;BME280;1994;48.640;8.894;2024-03-02T10:44:05;94948.25;;;21.13;38.40
3960;BME280;1994;48.640;8.894;2024-03-02T10:46:34;94943.09;;;20.72;38.59
3960;BME280;1994;48.640;8.894;2024-03-02T10:49:01;94947.88;;;20.58;39.24
3960;BME280;1994;48.640;8.894;2024-03-02T10:51:30;94939.84;;;20.22;40.22
3960;BME280;1994;48.640;8.894;2024-03-02T10:53:58;94939.72;;;19.40;41.04
3960;BME280;1994;48.640;8.894;2024-03-02T10:56:43;94932.53;;;20.07;40.96
3960;BME280;1994;48.640;8.894;2024-03-02T10:59:36;94939.25;;;21.02;38.21
3960;BME280;1994;48.640;8.894;2024-03-02T11:02:05;94934.56;;;22.03;37.20
3960;BME280;1994;48.640;8.894;2024-03-02T11:04:34;94926.31;;;22.32;36.15
3960;BME280;1994;48.640;8.894;2024-03-02T11:07:05;94924.13;;;21.83;37.34
3960;BME280;1994;48.640;8.894;2024-03-02T11:09:35;94918.56;;;22.51;36.82
3960;BME280;1994;48.640;8.894;2024-03-02T11:12:13;94921.78;;;22.05;34.85
3960;BME280;1994;48.640;8.894;2024-03-02T11:14:42;94915.22;;;22.39;35.02
3960;BME280;1994;48.640;8.894;2024-03-02T11:17:14;94907.69;;;22.68;34.67
3960;BME280;1994;48.640;8.894;2024-03-02T11:19:44;94904.78;;;23.01;34.24
3960;BME280;1994;48.640;8.894;2024-03-02T11:22:11;94908.19;;;21.91;34.98
3960;BME280;1994;48.640;8.894;2024-03-02T11:24:37;94908.31;;;21.35;36.52
3960;BME280;1994;48.640;8.894;2024-03-02T11:27:07;94896.91;;;20.95;37.53
3960;BME280;1994;48.640;8.894;2024-03-02T11:32:21;94890.31;;;20.24;39.84
3960;BME280;1994;48.640;8.894;2024-03-02T11:34:50;94885.31;;;20.31;40.05
3960;BME280;1994;48.640;8.894;2024-03-02T11:37:20;94886.44;;;20.74;38.21
3960;BME280;1994;48.640;8.894;2024-03-02T11:39:49;94871.56;;;21.14;38.45
3960;BME280;1994;48.640;8.894;2024-03-02T11:42:16;94882.63;;;21.80;35.59
3960;BME280;1994;48.640;8.894;2024-03-02T11:44:47;94875.56;;;21.96;35.82
3960;BME280;1994;48.640;8.894;2024-03-02T11:47:16;94871.41;;;21.83;34.53
3960;BME280;1994;48.640;8.894;2024-03-02T11:49:49;94869.97;;;21.85;35.21
3960;BME280;1994;48.640;8.894;2024-03-02T11:52:16;94866.75;;;22.31;35.12
3960;BME280;1994;48.640;8.894;2024-03-02T11:54:45;94852.72;;;22.70;35.71
3960;BME280;1994;48.640;8.894;2024-03-02T11:57:19;94858.47;;;22.33;34.25
3960;BME280;1994;48.640;8.894;2024-03-02T11:59:46;94858.00;;;22.43;34.91
3960;BME280;1994;48.640;8.894;2024-03-02T12:02:19;94845.72;;;23.40;32.44
3960;BME280;1994;48.640;8.894;2024-03-02T12:04:47;94841.94;;;22.48;31.93
3960;BME280;1994;48.640;8.894;2024-03-02T12:07:20;94848.81;;;21.58;33.21
3960;BME280;1994;48.640;8.894;2024-03-02T12:09:48;94837.16;;;19.98;35.81
3960;BME280;1994;48.640;8.894;2024-03-02T12:12:14;94840.97;;;20.09;36.74
3960;BME280;1994;48.640;8.894;2024-03-02T12:14:53;94836.97;;;20.23;37.15
3960;BME280;1994;48.640;8.894;2024-03-02T12:17:22;94836.22;;;19.41;36.64
3960;BME280;1994;48.640;8.894;2024-03-02T12:19:48;94832.13;;;19.31;36.57
3960;BME280;1994;48.640;8.894;2024-03-02T12:22:14;94830.59;;;19.51;37.60
3960;BME280;1994;48.640;8.894;2024-03-02T12:24:42;94823.97;;;18.58;39.07
3960;BME280;1994;48.640;8.894;2024-03-02T12:27:12;94826.81;;;18.36;38.86
3960;BME280;1994;48.640;8.894;2024-03-02T12:29:39;94831.16;;;17.81;37.95
3960;BME280;1994;48.640;8.894;2024-03-02T12:32:05;94825.59;;;17.74;37.07
3960;BME280;1994;48.640;8.894;2024-03-02T12:34:32;94824.06;;;17.56;38.89
3960;BME280;1994;48.640;8.894;2024-03-02T12:36:58;94823.78;;;17.66;38.99
3960;BME280;1994;48.640;8.894;2024-03-02T12:39:24;94816.53;;;17.63;39.18
3960;BME280;1994;48.640;8.894;2024-03-02T12:41:50;94811.13;;;17.68;39.74
3960;BME280;1994;48.640;8.894;2024-03-02T12:44:17;94811.13;;;17.51;41.68
3960;BME280;1994;48.640;8.894;2024-03-02T12:46:43;94804.94;;;17.30;42.35
3960;BME280;1994;48.640;8.894;2024-03-02T12:49:12;94808.84;;;16.85;42.37
3960;BME280;1994;48.640;8.894;2024-03-02T12:51:40;94809.91;;;16.84;41.89
3960;BME280;1994;48.640;8.894;2024-03-02T12:54:10;94803.69;;;17.27;41.16
3960;BME280;1994;48.640;8.894;2024-03-02T12:56:37;94807.72;;;17.59;40.59
3960;BME280;1994;48.640;8.894;2024-03-02T12:59:04;94801.84;;;17.28;41.25
3960;BME280;1994;48.640;8.894;2024-03-02T13:01:31;94798.81;;;17.60;41.60
3960;BME280;1994;48.640;8.894;2024-03-02T13:03:58;94802.66;;;17.79;41.45
3960;BME280;1994;48.640;8.894;2024-03-02T13:06:25;94796.13;;;17.09;42.40
3960;BME280;1994;48.640;8.894;2024-03-02T13:08:55;94795.00;;;16.93;42.92
3960;BME280;1994;48.640;8.894;2024-03-02T13:11:25;94793.94;;;16.94;43.03
3960;BME280;1994;48.640;8.894;2024-03-02T13:13:51;94791.13;;;16.82;43.90
3960;BME280;1994;48.640;8.894;2024-03-02T13:16:18;94801.44;;;16.87;44.05
3960;BME280;1994;48.640;8.894;2024-03-02T13:18:46;94798.53;;;16.88;44.31
3960;BME280;1994;48.640;8.894;2024-03-02T13:21:11;94794.38;;;16.79;44.91
3960;BME280;1994;48.640;8.894;2024-03-02T13:23:37;94790.78;;;16.66;45.32
3960;BME280;1994;48.640;8.894;2024-03-02T13:26:03;94786.94;;;16.64;44.94
3960;BME280;1994;48.640;8.894;2024-03-02T13:28:30;94791.06;;;16.56;44.72
3960;BME280;1994;48.640;8.894;2024-03-02T13:30:55;94788.47;;;16.65;45.18